createdAt,value
2017-10-12T00:00:04.831Z,0.00
2017-10-12T00:01:04.824Z,0.00
2017-10-12T00:02:04.820Z,0.00
2017-10-12T00:03:04.807Z,0.00
2017-10-12T00:04:04.801Z,0.00
2017-10-12T00:05:04.792Z,0.00
2017-10-12T00:06:04.798Z,0.00
2017-10-12T00:07:04.778Z,0.00
2017-10-12T00:08:04.775Z,0.00
2017-10-12T00:09:04.761Z,0.00
2017-10-12T00:10:04.753Z,0.00
2017-10-12T00:11:04.746Z,0.00
2017-10-12T00:12:04.738Z,0.00
2017-10-12T00:13:04.739Z,0.00
2017-10-12T00:14:04.722Z,0.00
2017-10-12T00:15:04.715Z,0.00
2017-10-12T00:16:04.707Z,0.00
2017-10-12T00:17:04.700Z,0.00
2017-10-12T00:18:04.691Z,0.00
2017-10-12T00:19:04.685Z,0.00
2017-10-12T00:20:04.678Z,0.00
2017-10-12T00:21:04.670Z,0.00
2017-10-12T00:22:04.660Z,0.00
2017-10-12T00:23:04.655Z,0.00
2017-10-12T00:24:04.646Z,0.00
2017-10-12T00:25:04.638Z,0.00
2017-10-12T00:26:04.631Z,0.00
2017-10-12T00:27:04.646Z,0.00
2017-10-12T00:28:04.618Z,0.00
2017-10-12T00:29:04.608Z,0.00
2017-10-12T00:30:04.603Z,0.00
2017-10-12T00:31:04.594Z,0.00
2017-10-12T00:32:04.587Z,0.00
2017-10-12T00:33:04.579Z,0.00
2017-10-12T00:34:04.573Z,0.00
2017-10-12T00:35:04.562Z,0.00
2017-10-12T00:36:04.554Z,0.00
2017-10-12T00:37:04.549Z,0.00
2017-10-12T00:38:04.540Z,0.00
2017-10-12T00:39:04.534Z,0.00
2017-10-12T00:40:04.525Z,0.00
2017-10-12T00:41:04.517Z,0.00
2017-10-12T00:42:04.507Z,0.00
2017-10-12T00:43:04.500Z,0.00
2017-10-12T00:44:04.492Z,0.00
2017-10-12T00:45:04.486Z,0.00
2017-10-12T00:46:04.478Z,0.00
2017-10-12T00:47:04.468Z,0.00
2017-10-12T00:48:04.470Z,0.00
2017-10-12T00:49:04.458Z,0.00
2017-10-12T00:50:04.446Z,0.00
2017-10-12T00:51:04.438Z,0.00
2017-10-12T00:52:04.431Z,0.00
2017-10-12T00:53:04.424Z,0.00
2017-10-12T00:54:04.414Z,0.00
2017-10-12T00:55:04.408Z,0.00
2017-10-12T00:56:04.402Z,0.00
2017-10-12T00:57:04.390Z,0.00
2017-10-12T00:58:04.383Z,0.00
2017-10-12T00:59:04.377Z,0.00
2017-10-12T01:00:04.368Z,0.00
2017-10-12T01:01:04.362Z,0.00
2017-10-12T01:02:04.352Z,0.00
2017-10-12T01:03:04.345Z,0.00
2017-10-12T01:04:04.338Z,0.00
2017-10-12T01:05:04.328Z,0.00
2017-10-12T01:06:04.322Z,0.00
2017-10-12T01:07:04.312Z,0.00
2017-10-12T01:08:04.304Z,0.00
2017-10-12T01:09:04.299Z,0.00
2017-10-12T01:10:04.290Z,0.00
2017-10-12T01:11:04.281Z,0.00
2017-10-12T01:12:04.274Z,0.00
2017-10-12T01:13:04.280Z,0.00
2017-10-12T01:14:04.257Z,0.00
2017-10-12T01:15:04.247Z,0.00
2017-10-12T01:16:04.240Z,0.00
2017-10-12T01:17:04.232Z,0.00
2017-10-12T01:18:04.225Z,0.00
2017-10-12T01:19:04.214Z,0.00
2017-10-12T01:20:04.206Z,0.00
2017-10-12T01:21:04.197Z,0.00
2017-10-12T01:22:04.190Z,0.00
2017-10-12T01:23:04.181Z,0.00
2017-10-12T01:24:04.176Z,0.00
2017-10-12T01:25:04.165Z,0.00
2017-10-12T01:26:04.157Z,0.00
2017-10-12T01:27:04.153Z,0.00
2017-10-12T01:28:04.143Z,0.00
2017-10-12T01:29:04.139Z,0.00
2017-10-12T01:30:04.121Z,0.00
2017-10-12T01:31:04.115Z,0.00
2017-10-12T01:32:04.110Z,0.00
2017-10-12T01:33:04.097Z,0.00
2017-10-12T01:34:04.092Z,0.00
2017-10-12T01:35:04.080Z,0.00
2017-10-12T01:36:04.080Z,0.00
2017-10-12T01:37:04.063Z,0.00
2017-10-12T01:38:04.058Z,0.00
2017-10-12T01:39:04.045Z,0.00
2017-10-12T01:40:04.039Z,0.00
2017-10-12T01:41:04.032Z,0.00
2017-10-12T01:42:04.026Z,0.00
2017-10-12T01:43:04.012Z,0.00
2017-10-12T01:44:04.004Z,0.00
2017-10-12T01:45:03.996Z,0.00
2017-10-12T01:46:03.989Z,0.00
2017-10-12T01:47:03.978Z,0.00
2017-10-12T01:48:03.968Z,0.00
2017-10-12T01:49:03.959Z,0.00
2017-10-12T01:50:03.950Z,0.00
2017-10-12T01:51:03.942Z,0.00
2017-10-12T01:52:03.932Z,0.00
2017-10-12T01:53:03.929Z,0.00
2017-10-12T01:54:03.917Z,0.00
2017-10-12T01:55:03.909Z,0.00
2017-10-12T01:56:03.901Z,0.00
2017-10-12T01:57:03.890Z,0.00
2017-10-12T01:58:03.883Z,0.00
2017-10-12T01:59:03.873Z,0.00
2017-10-12T02:00:03.866Z,0.00
2017-10-12T02:01:03.854Z,0.00
2017-10-12T02:02:03.848Z,0.00
2017-10-12T02:03:03.840Z,0.00
2017-10-12T02:04:03.830Z,0.00
2017-10-12T02:05:03.826Z,0.00
2017-10-12T02:06:03.814Z,0.00
2017-10-12T02:07:03.803Z,0.00
2017-10-12T02:08:03.797Z,0.00
2017-10-12T02:09:03.785Z,0.00
2017-10-12T02:10:03.777Z,0.00
2017-10-12T02:11:03.773Z,0.00
2017-10-12T02:12:03.762Z,0.00
2017-10-12T02:13:03.753Z,0.00
2017-10-12T02:14:03.744Z,0.00
2017-10-12T02:15:03.738Z,0.00
2017-10-12T02:16:03.729Z,0.00
2017-10-12T02:17:03.717Z,0.00
2017-10-12T02:18:03.709Z,0.00
2017-10-12T02:19:03.711Z,0.00
2017-10-12T02:20:03.692Z,0.00
2017-10-12T02:21:03.684Z,0.00
2017-10-12T02:22:03.679Z,0.00
2017-10-12T02:23:03.668Z,0.00
2017-10-12T02:24:03.657Z,0.00
2017-10-12T02:25:03.652Z,0.00
2017-10-12T02:26:03.654Z,0.00
2017-10-12T02:27:03.632Z,0.00
2017-10-12T02:28:03.627Z,0.00
2017-10-12T02:29:03.616Z,0.00
2017-10-12T02:30:03.611Z,0.00
2017-10-12T02:31:03.597Z,0.00
2017-10-12T02:32:03.591Z,0.00
2017-10-12T02:33:03.580Z,0.00
2017-10-12T02:34:03.572Z,0.00
2017-10-12T02:35:03.565Z,0.00
2017-10-12T02:36:03.554Z,0.00
2017-10-12T02:37:03.547Z,0.00
2017-10-12T02:38:03.538Z,0.00
2017-10-12T02:39:03.535Z,0.00
2017-10-12T02:40:03.526Z,0.00
2017-10-12T02:41:03.512Z,0.00
2017-10-12T02:42:03.504Z,0.00
2017-10-12T02:43:03.497Z,0.00
2017-10-12T02:44:03.488Z,0.00
2017-10-12T02:45:03.480Z,0.00
2017-10-12T02:46:03.469Z,0.00
2017-10-12T02:47:03.461Z,0.00
2017-10-12T02:48:03.458Z,0.00
2017-10-12T02:49:03.455Z,0.00
2017-10-12T02:50:03.436Z,0.00
2017-10-12T02:51:03.427Z,0.00
2017-10-12T02:52:03.420Z,0.00
2017-10-12T02:53:03.412Z,0.00
2017-10-12T02:54:03.401Z,0.00
2017-10-12T02:55:03.392Z,0.00
2017-10-12T02:56:03.386Z,0.00
2017-10-12T02:57:03.374Z,0.00
2017-10-12T02:58:03.366Z,0.00
2017-10-12T02:59:03.359Z,0.00
2017-10-12T03:00:03.351Z,0.00
2017-10-12T03:01:03.342Z,0.00
2017-10-12T03:02:03.334Z,0.00
2017-10-12T03:03:03.326Z,0.00
2017-10-12T03:04:03.317Z,0.00
2017-10-12T03:05:03.307Z,0.00
2017-10-12T03:06:03.299Z,0.00
2017-10-12T03:07:03.290Z,0.00
2017-10-12T03:08:03.282Z,0.00
2017-10-12T03:09:03.278Z,0.00
2017-10-12T03:10:03.265Z,0.00
2017-10-12T03:11:03.259Z,0.00
2017-10-12T03:12:03.250Z,0.00
2017-10-12T03:13:03.240Z,0.00
2017-10-12T03:14:03.234Z,0.00
2017-10-12T03:15:03.226Z,0.00
2017-10-12T03:16:03.215Z,0.00
2017-10-12T03:17:03.214Z,0.00
2017-10-12T03:18:03.197Z,0.00
2017-10-12T03:19:03.189Z,0.00
2017-10-12T03:20:03.181Z,0.00
2017-10-12T03:21:03.175Z,0.00
2017-10-12T03:22:03.168Z,0.00
2017-10-12T03:23:03.155Z,0.00
2017-10-12T03:24:03.148Z,0.00
2017-10-12T03:25:03.142Z,0.00
2017-10-12T03:26:03.133Z,0.00
2017-10-12T03:27:03.121Z,0.00
2017-10-12T03:28:03.113Z,0.00
2017-10-12T03:29:03.104Z,0.00
2017-10-12T03:30:03.098Z,0.00
2017-10-12T03:31:03.087Z,0.00
2017-10-12T03:32:03.079Z,0.00
2017-10-12T03:33:03.074Z,0.00
2017-10-12T03:34:03.062Z,0.00
2017-10-12T03:35:03.056Z,0.00
2017-10-12T03:36:03.043Z,0.00
2017-10-12T03:37:03.041Z,0.00
2017-10-12T03:38:03.029Z,0.00
2017-10-12T03:39:03.018Z,0.00
2017-10-12T03:40:03.017Z,0.00
2017-10-12T03:41:03.000Z,0.00
2017-10-12T03:42:02.995Z,0.00
2017-10-12T03:43:02.984Z,0.00
2017-10-12T03:44:02.979Z,0.00
2017-10-12T03:45:02.967Z,0.00
2017-10-12T03:46:02.959Z,0.00
2017-10-12T03:47:02.949Z,0.00
2017-10-12T03:48:02.942Z,0.00
2017-10-12T03:49:02.933Z,0.00
2017-10-12T03:50:02.927Z,0.00
2017-10-12T03:51:02.915Z,0.00
2017-10-12T03:52:02.907Z,0.00
2017-10-12T03:53:02.901Z,0.00
2017-10-12T03:54:02.888Z,0.00
2017-10-12T03:55:02.883Z,0.00
2017-10-12T03:56:02.874Z,0.00
2017-10-12T03:57:02.868Z,0.00
2017-10-12T03:58:02.856Z,0.00
2017-10-12T03:59:02.846Z,0.00
2017-10-12T04:00:02.841Z,0.00
2017-10-12T04:01:02.833Z,0.00
2017-10-12T04:02:02.820Z,0.00
2017-10-12T04:03:02.812Z,0.00
2017-10-12T04:04:02.805Z,0.00
2017-10-12T04:05:02.793Z,0.00
2017-10-12T04:06:02.784Z,0.00
2017-10-12T04:07:02.790Z,0.00
2017-10-12T04:08:02.769Z,0.00
2017-10-12T04:09:02.763Z,0.00
2017-10-12T04:10:02.752Z,0.00
2017-10-12T04:11:02.742Z,0.00
2017-10-12T04:12:02.733Z,0.00
2017-10-12T04:13:02.722Z,0.00
2017-10-12T04:14:02.715Z,0.00
2017-10-12T04:15:02.708Z,0.00
2017-10-12T04:16:02.698Z,0.00
2017-10-12T04:17:02.690Z,0.00
2017-10-12T04:18:02.686Z,0.00
2017-10-12T04:19:02.672Z,0.00
2017-10-12T04:20:02.667Z,0.00
2017-10-12T04:21:02.656Z,0.00
2017-10-12T04:22:02.652Z,0.00
2017-10-12T04:23:02.635Z,0.00
2017-10-12T04:24:02.627Z,0.00
2017-10-12T04:25:02.618Z,0.00
2017-10-12T04:26:02.610Z,0.00
2017-10-12T04:27:02.600Z,0.00
2017-10-12T04:28:02.593Z,0.00
2017-10-12T04:29:02.585Z,0.00
2017-10-12T04:30:02.574Z,0.00
2017-10-12T04:31:02.565Z,0.00
2017-10-12T04:32:02.555Z,0.00
2017-10-12T04:33:02.547Z,0.00
2017-10-12T04:34:02.537Z,0.00
2017-10-12T04:35:02.530Z,0.00
2017-10-12T04:36:02.519Z,0.00
2017-10-12T04:37:02.512Z,0.00
2017-10-12T04:38:02.501Z,0.00
2017-10-12T04:39:02.492Z,0.00
2017-10-12T04:40:02.488Z,0.00
2017-10-12T04:41:02.475Z,0.00
2017-10-12T04:42:02.475Z,0.00
2017-10-12T04:43:02.457Z,0.00
2017-10-12T04:44:02.448Z,0.00
2017-10-12T04:45:02.441Z,0.00
2017-10-12T04:46:02.430Z,0.00
2017-10-12T04:47:02.423Z,0.00
2017-10-12T04:48:02.411Z,0.00
2017-10-12T04:49:02.402Z,0.00
2017-10-12T04:50:02.398Z,0.00
2017-10-12T04:51:02.385Z,0.00
2017-10-12T04:52:02.377Z,0.00
2017-10-12T04:53:02.364Z,0.00
2017-10-12T04:54:02.356Z,0.00
2017-10-12T04:55:02.351Z,0.00
2017-10-12T04:56:02.338Z,0.00
2017-10-12T04:57:02.328Z,0.00
2017-10-12T04:58:02.322Z,0.00
2017-10-12T04:59:02.315Z,0.00
2017-10-12T05:00:02.303Z,0.00
2017-10-12T05:01:02.295Z,0.00
2017-10-12T05:02:02.284Z,0.00
2017-10-12T05:03:02.276Z,0.00
2017-10-12T05:04:02.265Z,0.00
2017-10-12T05:05:02.260Z,0.00
2017-10-12T05:06:02.247Z,0.00
2017-10-12T05:07:02.238Z,0.00
2017-10-12T05:08:02.229Z,0.00
2017-10-12T05:09:02.220Z,0.00
2017-10-12T05:10:02.216Z,0.00
2017-10-12T05:11:02.206Z,0.00
2017-10-12T05:12:02.197Z,0.00
2017-10-12T05:13:02.184Z,0.00
2017-10-12T05:14:02.174Z,0.00
2017-10-12T05:15:02.165Z,0.00
2017-10-12T05:16:02.156Z,0.00
2017-10-12T05:17:02.148Z,0.00
2017-10-12T05:18:02.136Z,0.00
2017-10-12T05:19:02.128Z,0.00
2017-10-12T05:20:02.123Z,0.00
2017-10-12T05:21:02.110Z,0.00
2017-10-12T05:22:02.101Z,0.00
2017-10-12T05:23:02.092Z,0.00
2017-10-12T05:24:02.083Z,0.00
2017-10-12T05:25:02.077Z,0.00
2017-10-12T05:26:02.065Z,0.00
2017-10-12T05:27:02.073Z,0.00
2017-10-12T05:28:02.045Z,0.00
2017-10-12T05:29:02.036Z,0.00
2017-10-12T05:30:02.027Z,0.00
2017-10-12T05:31:02.021Z,0.00
2017-10-12T05:32:02.039Z,0.00
2017-10-12T05:33:02.004Z,0.00
2017-10-12T05:34:01.991Z,0.00
2017-10-12T05:35:01.988Z,0.00
2017-10-12T05:36:01.972Z,0.00
2017-10-12T05:37:01.963Z,0.00
2017-10-12T05:38:01.954Z,0.00
2017-10-12T05:39:01.946Z,0.00
2017-10-12T05:40:01.943Z,0.00
2017-10-12T05:41:01.930Z,5.63
2017-10-12T05:42:01.917Z,5.63
2017-10-12T05:43:01.914Z,5.63
2017-10-12T05:44:01.901Z,5.63
2017-10-12T05:45:01.890Z,5.63
2017-10-12T05:46:01.880Z,5.63
2017-10-12T05:47:01.901Z,11.25
2017-10-12T05:48:01.863Z,11.25
2017-10-12T05:49:01.857Z,11.25
2017-10-12T05:50:01.849Z,11.25
2017-10-12T05:51:01.834Z,16.88
2017-10-12T05:52:01.829Z,16.88
2017-10-12T05:53:01.817Z,16.88
2017-10-12T05:54:01.807Z,22.50
2017-10-12T05:55:01.802Z,28.13
2017-10-12T05:56:01.789Z,28.13
2017-10-12T05:57:01.779Z,33.75
2017-10-12T05:58:01.771Z,39.38
2017-10-12T05:59:01.762Z,45.00
2017-10-12T06:00:01.759Z,45.00
2017-10-12T06:01:01.745Z,56.25
2017-10-12T06:02:01.736Z,56.25
2017-10-12T06:03:01.727Z,61.88
2017-10-12T06:04:01.719Z,73.13
2017-10-12T06:05:01.707Z,84.38
2017-10-12T06:06:01.698Z,84.38
2017-10-12T06:07:01.689Z,78.75
2017-10-12T06:08:01.680Z,78.75
2017-10-12T06:09:01.676Z,95.63
2017-10-12T06:10:01.660Z,95.63
2017-10-12T06:11:01.652Z,95.63
2017-10-12T06:12:01.643Z,101.25
2017-10-12T06:13:01.635Z,101.25
2017-10-12T06:14:01.625Z,106.88
2017-10-12T06:15:01.616Z,112.50
2017-10-12T06:16:01.607Z,112.50
2017-10-12T06:17:01.596Z,123.75
2017-10-12T06:18:01.588Z,112.50
2017-10-12T06:19:01.579Z,106.88
2017-10-12T06:20:01.571Z,106.88
2017-10-12T06:21:01.561Z,112.50
2017-10-12T06:22:01.552Z,118.13
2017-10-12T06:23:01.542Z,118.13
2017-10-12T06:24:01.536Z,129.38
2017-10-12T06:25:01.523Z,123.75
2017-10-12T06:26:01.515Z,123.75
2017-10-12T06:27:01.506Z,123.75
2017-10-12T06:28:01.506Z,129.38
2017-10-12T06:29:01.490Z,129.38
2017-10-12T06:30:01.481Z,135.00
2017-10-12T06:31:01.471Z,140.63
2017-10-12T06:32:01.466Z,140.63
2017-10-12T06:33:01.450Z,146.25
2017-10-12T06:34:01.442Z,151.88
2017-10-12T06:35:01.436Z,151.88
2017-10-12T06:36:01.427Z,146.25
2017-10-12T06:37:01.416Z,140.63
2017-10-12T06:38:01.407Z,129.38
2017-10-12T06:39:01.403Z,135.00
2017-10-12T06:40:01.388Z,135.00
2017-10-12T06:41:01.379Z,135.00
2017-10-12T06:42:01.392Z,140.63
2017-10-12T06:43:01.366Z,146.25
2017-10-12T06:44:01.388Z,151.88
2017-10-12T06:45:01.348Z,157.50
2017-10-12T06:46:01.333Z,163.13
2017-10-12T06:47:01.327Z,163.13
2017-10-12T06:48:01.322Z,163.13
2017-10-12T06:49:01.308Z,163.13
2017-10-12T06:50:01.299Z,163.13
2017-10-12T06:51:01.289Z,163.13
2017-10-12T06:52:01.281Z,168.75
2017-10-12T06:53:01.272Z,168.75
2017-10-12T06:54:01.264Z,174.38
2017-10-12T06:55:01.254Z,174.38
2017-10-12T06:56:01.245Z,174.38
2017-10-12T06:57:01.234Z,174.38
2017-10-12T06:58:01.227Z,174.38
2017-10-12T06:59:01.219Z,168.75
2017-10-12T07:00:01.210Z,163.13
2017-10-12T07:01:01.203Z,168.75
2017-10-12T07:02:01.192Z,174.38
2017-10-12T07:03:01.183Z,180.00
2017-10-12T07:04:01.177Z,180.00
2017-10-12T07:05:01.164Z,191.25
2017-10-12T07:06:01.155Z,208.13
2017-10-12T07:07:01.146Z,213.75
2017-10-12T07:08:01.141Z,225.00
2017-10-12T07:09:01.130Z,236.25
2017-10-12T07:10:01.120Z,258.75
2017-10-12T07:11:01.111Z,281.25
2017-10-12T07:12:01.180Z,298.13
2017-10-12T07:13:01.097Z,298.13
2017-10-12T07:14:01.095Z,309.38
2017-10-12T07:15:01.106Z,309.38
2017-10-12T07:16:01.068Z,298.13
2017-10-12T07:17:01.059Z,286.88
2017-10-12T07:18:01.055Z,275.63
2017-10-12T07:19:01.044Z,270.00
2017-10-12T07:20:01.034Z,258.75
2017-10-12T07:21:01.023Z,258.75
2017-10-12T07:22:01.015Z,270.00
2017-10-12T07:23:01.021Z,270.00
2017-10-12T07:24:00.997Z,270.00
2017-10-12T07:25:00.987Z,275.63
2017-10-12T07:26:00.984Z,281.25
2017-10-12T07:27:00.974Z,292.50
2017-10-12T07:28:00.962Z,303.75
2017-10-12T07:29:00.952Z,303.75
2017-10-12T07:30:00.943Z,303.75
2017-10-12T07:31:00.936Z,303.75
2017-10-12T07:32:00.927Z,298.13
2017-10-12T07:33:00.917Z,292.50
2017-10-12T07:34:00.911Z,275.63
2017-10-12T07:35:00.905Z,264.38
2017-10-12T07:36:00.896Z,258.75
2017-10-12T07:37:00.884Z,264.38
2017-10-12T07:38:00.890Z,253.13
2017-10-12T07:39:00.867Z,247.50
2017-10-12T07:40:00.857Z,247.50
2017-10-12T07:41:00.849Z,247.50
2017-10-12T07:42:00.844Z,264.38
2017-10-12T07:43:00.833Z,270.00
2017-10-12T07:44:00.825Z,281.25
2017-10-12T07:45:00.815Z,281.25
2017-10-12T07:46:00.808Z,275.63
2017-10-12T07:47:00.815Z,258.75
2017-10-12T07:48:00.790Z,258.75
2017-10-12T07:49:00.779Z,270.00
2017-10-12T07:50:00.773Z,292.50
2017-10-12T07:51:00.764Z,320.63
2017-10-12T07:52:00.756Z,348.75
2017-10-12T07:53:00.747Z,382.50
2017-10-12T07:54:00.737Z,399.38
2017-10-12T07:55:00.793Z,421.88
2017-10-12T07:56:00.725Z,421.88
2017-10-12T07:57:00.712Z,416.25
2017-10-12T07:58:00.705Z,399.38
2017-10-12T07:59:00.695Z,388.13
2017-10-12T08:00:00.687Z,376.88
2017-10-12T08:01:00.683Z,360.00
2017-10-12T08:02:00.670Z,348.75
2017-10-12T08:03:00.663Z,343.13
2017-10-12T08:04:00.653Z,348.75
2017-10-12T08:05:00.647Z,365.63
2017-10-12T08:06:00.637Z,399.38
2017-10-12T08:07:00.628Z,438.75
2017-10-12T08:08:00.619Z,478.13
2017-10-12T08:09:00.611Z,517.50
2017-10-12T08:10:00.602Z,534.38
2017-10-12T08:11:00.593Z,523.13
2017-10-12T08:12:00.624Z,523.13
2017-10-12T08:13:00.578Z,528.75
2017-10-12T08:14:00.571Z,562.50
2017-10-12T08:15:00.579Z,601.88
2017-10-12T08:16:00.553Z,624.38
2017-10-12T08:17:00.541Z,613.13
2017-10-12T08:18:00.542Z,607.50
2017-10-12T08:19:00.531Z,618.75
2017-10-12T08:20:00.525Z,624.38
2017-10-12T08:21:00.509Z,641.25
2017-10-12T08:22:00.502Z,641.25
2017-10-12T08:23:00.495Z,646.88
2017-10-12T08:24:00.491Z,646.88
2017-10-12T08:25:00.478Z,652.50
2017-10-12T08:26:00.471Z,630.00
2017-10-12T08:27:00.463Z,585.00
2017-10-12T08:28:00.454Z,556.88
2017-10-12T08:29:00.445Z,551.25
2017-10-12T08:30:00.441Z,579.38
2017-10-12T08:31:00.431Z,641.25
2017-10-12T08:32:00.421Z,613.13
2017-10-12T08:33:00.428Z,630.00
2017-10-12T08:34:00.407Z,680.63
2017-10-12T08:35:00.399Z,708.75
2017-10-12T08:36:00.393Z,720.00
2017-10-12T08:37:00.384Z,736.88
2017-10-12T08:38:00.377Z,697.50
2017-10-12T08:39:00.369Z,776.25
2017-10-12T08:40:00.361Z,1552.50
2017-10-12T08:41:00.351Z,1170.00
2017-10-12T08:42:00.344Z,680.63
2017-10-12T08:43:00.339Z,748.13
2017-10-12T08:44:00.331Z,725.63
2017-10-12T08:45:00.326Z,933.75
2017-10-12T08:46:00.314Z,776.25
2017-10-12T08:47:00.308Z,731.25
2017-10-12T08:48:00.302Z,838.13
2017-10-12T08:49:00.293Z,905.63
2017-10-12T08:50:00.285Z,776.25
2017-10-12T08:51:00.286Z,759.38
2017-10-12T08:52:00.272Z,978.75
2017-10-12T08:53:00.265Z,703.13
2017-10-12T08:54:00.257Z,703.13
2017-10-12T08:55:00.249Z,630.00
2017-10-12T08:56:00.245Z,641.25
2017-10-12T08:57:00.256Z,675.00
2017-10-12T08:58:00.310Z,691.88
2017-10-12T08:59:00.228Z,663.75
2017-10-12T09:00:00.268Z,568.13
2017-10-12T09:01:00.268Z,528.75
2017-10-12T09:02:00.216Z,511.88
2017-10-12T09:03:00.211Z,455.63
2017-10-12T09:04:00.230Z,298.13
2017-10-12T09:05:00.237Z,219.38
2017-10-12T09:06:00.170Z,208.13
2017-10-12T09:07:00.168Z,326.25
2017-10-12T09:08:00.183Z,360.00
2017-10-12T09:09:00.156Z,405.00
2017-10-12T09:10:00.146Z,427.50
2017-10-12T09:11:00.137Z,472.50
2017-10-12T09:12:00.129Z,365.63
2017-10-12T09:13:00.123Z,360.00
2017-10-12T09:14:00.129Z,770.63
2017-10-12T09:15:00.108Z,517.50
2017-10-12T09:16:00.107Z,545.63
2017-10-12T09:17:00.096Z,444.38
2017-10-12T09:18:00.085Z,478.13
2017-10-12T09:19:00.077Z,500.63
2017-10-12T09:20:00.074Z,427.50
2017-10-12T09:21:00.061Z,410.63
2017-10-12T09:22:00.054Z,360.00
2017-10-12T09:23:00.047Z,348.75
2017-10-12T09:24:00.039Z,523.13
2017-10-12T09:25:00.034Z,613.13
2017-10-12T09:26:00.047Z,798.75
2017-10-12T09:27:00.017Z,916.88
2017-10-12T09:28:00.012Z,978.75
2017-10-12T09:29:00.006Z,1479.38
2017-10-12T09:29:59.995Z,1456.88
2017-10-12T09:30:59.988Z,1130.63
2017-10-12T09:31:59.986Z,1226.25
2017-10-12T09:32:59.973Z,618.75
2017-10-12T09:33:59.965Z,1586.25
2017-10-12T09:34:59.959Z,967.50
2017-10-12T09:35:59.952Z,1170.00
2017-10-12T09:36:59.992Z,1788.75
2017-10-12T09:37:59.943Z,2430.00
2017-10-12T09:38:59.930Z,1231.88
2017-10-12T09:39:59.924Z,855.00
2017-10-12T09:40:59.917Z,2581.88
2017-10-12T09:41:59.947Z,804.38
2017-10-12T09:42:59.906Z,1237.50
2017-10-12T09:43:59.920Z,2851.88
2017-10-12T09:44:59.895Z,1310.63
2017-10-12T09:45:59.893Z,1215.00
2017-10-12T09:46:59.880Z,1828.13
2017-10-12T09:47:59.880Z,2829.38
2017-10-12T09:48:59.872Z,2199.38
2017-10-12T09:49:59.867Z,2683.13
2017-10-12T09:50:59.862Z,2683.13
2017-10-12T09:51:59.868Z,2098.13
2017-10-12T09:52:59.852Z,2261.25
2017-10-12T09:53:59.851Z,1451.25
2017-10-12T09:54:59.844Z,961.88
2017-10-12T09:55:59.841Z,500.63
2017-10-12T09:56:59.837Z,421.88
2017-10-12T09:57:59.834Z,523.13
2017-10-12T09:58:59.876Z,596.25
2017-10-12T09:59:59.834Z,787.50
2017-10-12T10:00:59.867Z,725.63
2017-10-12T10:01:59.822Z,450.00
2017-10-12T10:02:59.818Z,1198.13
2017-10-12T10:03:59.809Z,1316.25
2017-10-12T10:04:59.807Z,635.63
2017-10-12T10:05:59.829Z,708.75
2017-10-12T10:06:59.800Z,686.25
2017-10-12T10:07:59.842Z,1411.88
2017-10-12T10:08:59.808Z,1361.25
2017-10-12T10:09:59.785Z,742.50
2017-10-12T10:10:59.780Z,686.25
2017-10-12T10:11:59.776Z,1091.25
2017-10-12T10:12:59.771Z,883.13
2017-10-12T10:13:59.771Z,1350.00
2017-10-12T10:14:59.766Z,1108.13
2017-10-12T10:15:59.762Z,1327.50
2017-10-12T10:16:59.755Z,1710.00
2017-10-12T10:17:59.773Z,1670.63
2017-10-12T10:18:59.750Z,1743.75
2017-10-12T10:19:59.750Z,1620.00
2017-10-12T10:20:59.743Z,1085.63
2017-10-12T10:21:59.740Z,905.63
2017-10-12T10:22:59.740Z,905.63
2017-10-12T10:23:59.733Z,933.75
2017-10-12T10:24:59.730Z,1068.75
2017-10-12T10:25:59.732Z,1040.63
2017-10-12T10:26:59.725Z,855.00
2017-10-12T10:27:59.721Z,894.38
2017-10-12T10:28:59.720Z,883.13
2017-10-12T10:29:59.721Z,860.63
2017-10-12T10:30:59.713Z,838.13
2017-10-12T10:31:59.709Z,866.25
2017-10-12T10:32:59.705Z,905.63
2017-10-12T10:33:59.716Z,1423.13
2017-10-12T10:34:59.699Z,1569.38
2017-10-12T10:35:59.693Z,838.13
2017-10-12T10:36:59.691Z,866.25
2017-10-12T10:37:59.718Z,1704.38
2017-10-12T10:38:59.688Z,1513.13
2017-10-12T10:39:59.679Z,725.63
2017-10-12T10:40:59.677Z,781.88
2017-10-12T10:41:59.674Z,990.00
2017-10-12T10:42:59.668Z,888.75
2017-10-12T10:43:59.666Z,1361.25
2017-10-12T10:44:59.663Z,1440.00
2017-10-12T10:45:59.663Z,1625.63
2017-10-12T10:46:59.655Z,1541.25
2017-10-12T10:47:59.658Z,1563.75
2017-10-12T10:48:59.648Z,995.63
2017-10-12T10:49:59.653Z,1749.38
2017-10-12T10:50:59.642Z,1670.63
2017-10-12T10:51:59.640Z,1530.00
2017-10-12T10:52:59.639Z,1254.38
2017-10-12T10:53:59.633Z,1125.00
2017-10-12T10:54:59.653Z,1119.38
2017-10-12T10:55:59.628Z,1254.38
2017-10-12T10:56:59.624Z,1125.00
2017-10-12T10:57:59.628Z,1136.25
2017-10-12T10:58:59.622Z,871.88
2017-10-12T10:59:59.618Z,939.38
2017-10-12T11:00:59.618Z,1271.25
2017-10-12T11:01:59.615Z,1282.50
2017-10-12T11:02:59.613Z,1333.13
2017-10-12T11:03:59.612Z,1237.50
2017-10-12T11:04:59.609Z,1276.88
2017-10-12T11:05:59.646Z,1181.25
2017-10-12T11:06:59.603Z,770.63
2017-10-12T11:07:59.598Z,731.25
2017-10-12T11:08:59.599Z,714.38
2017-10-12T11:09:59.595Z,759.38
2017-10-12T11:10:59.630Z,826.88
2017-10-12T11:11:59.589Z,849.38
2017-10-12T11:12:59.588Z,843.75
2017-10-12T11:13:59.583Z,888.75
2017-10-12T11:14:59.583Z,961.88
2017-10-12T11:15:59.590Z,1057.50
2017-10-12T11:16:59.580Z,950.63
2017-10-12T11:17:59.571Z,900.00
2017-10-12T11:18:59.573Z,973.13
2017-10-12T11:19:59.574Z,804.38
2017-10-12T11:20:59.564Z,731.25
2017-10-12T11:21:59.558Z,765.00
2017-10-12T11:22:59.559Z,810.00
2017-10-12T11:23:59.552Z,1226.25
2017-10-12T11:24:59.548Z,641.25
2017-10-12T11:25:59.547Z,579.38
2017-10-12T11:26:59.540Z,607.50
2017-10-12T11:27:59.535Z,675.00
2017-10-12T11:28:59.535Z,742.50
2017-10-12T11:29:59.529Z,855.00
2017-10-12T11:30:59.523Z,1186.88
2017-10-12T11:31:59.521Z,1535.63
2017-10-12T11:32:59.516Z,1569.38
2017-10-12T11:33:59.511Z,1479.38
2017-10-12T11:34:59.509Z,1125.00
2017-10-12T11:35:59.538Z,1125.00
2017-10-12T11:36:59.503Z,1102.50
2017-10-12T11:37:59.496Z,1355.63
2017-10-12T11:38:59.493Z,2255.63
2017-10-12T11:39:59.489Z,2379.38
2017-10-12T11:40:59.485Z,1839.38
2017-10-12T11:41:59.484Z,1569.38
2017-10-12T11:42:59.479Z,1597.50
2017-10-12T11:43:59.474Z,1569.38
2017-10-12T11:44:59.475Z,1743.75
2017-10-12T11:45:59.467Z,1800.00
2017-10-12T11:46:59.469Z,1693.13
2017-10-12T11:47:59.460Z,1794.38
2017-10-12T11:48:59.462Z,1636.88
2017-10-12T11:49:59.455Z,1198.13
2017-10-12T11:50:59.452Z,1254.38
2017-10-12T11:51:59.449Z,945.00
2017-10-12T11:52:59.446Z,748.13
2017-10-12T11:53:59.441Z,770.63
2017-10-12T11:54:59.439Z,781.88
2017-10-12T11:55:59.436Z,787.50
2017-10-12T11:56:59.433Z,776.25
2017-10-12T11:57:59.429Z,697.50
2017-10-12T11:58:59.427Z,804.38
2017-10-12T11:59:59.424Z,765.00
2017-10-12T12:00:59.420Z,855.00
2017-10-12T12:01:59.416Z,1130.63
2017-10-12T12:02:59.414Z,1265.63
2017-10-12T12:03:59.411Z,1108.13
2017-10-12T12:04:59.406Z,905.63
2017-10-12T12:05:59.409Z,1029.38
2017-10-12T12:06:59.399Z,1130.63
2017-10-12T12:07:59.396Z,905.63
2017-10-12T12:08:59.391Z,731.25
2017-10-12T12:09:59.391Z,691.88
2017-10-12T12:10:59.384Z,663.75
2017-10-12T12:11:59.383Z,596.25
2017-10-12T12:12:59.374Z,556.88
2017-10-12T12:13:59.372Z,562.50
2017-10-12T12:14:59.367Z,590.63
2017-10-12T12:15:59.366Z,652.50
2017-10-12T12:16:59.408Z,691.88
2017-10-12T12:17:59.356Z,669.38
2017-10-12T12:18:59.353Z,618.75
2017-10-12T12:19:59.346Z,585.00
2017-10-12T12:20:59.383Z,579.38
2017-10-12T12:21:59.337Z,568.13
2017-10-12T12:22:59.372Z,540.00
2017-10-12T12:23:59.328Z,511.88
2017-10-12T12:24:59.321Z,511.88
2017-10-12T12:25:59.359Z,556.88
2017-10-12T12:26:59.313Z,635.63
2017-10-12T12:27:59.307Z,748.13
2017-10-12T12:28:59.303Z,697.50
2017-10-12T12:29:59.298Z,663.75
2017-10-12T12:30:59.297Z,652.50
2017-10-12T12:31:59.291Z,630.00
2017-10-12T12:32:59.286Z,607.50
2017-10-12T12:33:59.276Z,596.25
2017-10-12T12:34:59.273Z,573.75
2017-10-12T12:35:59.269Z,568.13
2017-10-12T12:36:59.261Z,568.13
2017-10-12T12:37:59.265Z,562.50
2017-10-12T12:38:59.250Z,540.00
2017-10-12T12:39:59.252Z,523.13
2017-10-12T12:40:59.239Z,528.75
2017-10-12T12:41:59.235Z,545.63
2017-10-12T12:42:59.230Z,568.13
2017-10-12T12:43:59.226Z,573.75
2017-10-12T12:44:59.219Z,585.00
2017-10-12T12:45:59.215Z,568.13
2017-10-12T12:46:59.207Z,562.50
2017-10-12T12:47:59.202Z,556.88